Time;durP1;ratioP1;P1;durP2;ratioP2;P2;SDS_P1;SDS_P2;PMS_P1;PMS_P2;Temp;Humidity;BMP_temperature;BMP_pressure;BME280_temperature;BME280_humidity;BME280_pressure;Samples;Min_cycle;Max_cycle;Signal;HPM_P1;HPM_P2
2021/11/25 00:00:39;;;;;;;27.10;15.20;;;5.40;99.90;;;;;;4975182;28;20469;-56
2021/11/25 00:03:05;;;;;;;23.43;16.50;;;5.40;99.90;;;;;;4979844;28;20439;-57
2021/11/25 00:05:32;;;;;;;22.63;14.90;;;5.20;99.90;;;;;;4975843;28;20437;-58
2021/11/25 00:07:57;;;;;;;24.70;14.63;;;5.40;99.90;;;;;;4976513;28;20827;-58
2021/11/25 00:10:24;;;;;;;22.60;15.43;;;5.40;99.90;;;;;;4976577;28;20450;-56
2021/11/25 00:12:52;;;;;;;21.23;13.73;;;5.40;99.90;;;;;;4976889;28;20195;-56
2021/11/25 00:15:18;;;;;;;23.80;13.80;;;5.20;99.90;;;;;;4982115;28;21078;-57
2021/11/25 00:17:43;;;;;;;23.90;15.27;;;5.20;99.90;;;;;;4978075;28;20456;-58
2021/11/25 00:20:11;;;;;;;22.43;14.67;;;5.00;99.90;;;;;;4979495;28;20241;-57
2021/11/25 00:22:38;;;;;;;25.40;16.13;;;5.20;99.90;;;;;;4979533;28;20295;-58
2021/11/25 00:25:04;;;;;;;23.33;14.30;;;5.40;99.90;;;;;;4976888;28;20441;-59
2021/11/25 00:27:30;;;;;;;21.00;14.20;;;5.60;99.90;;;;;;4979929;28;20519;-55
2021/11/25 00:29:56;;;;;;;24.13;14.70;;;5.60;99.90;;;;;;4979621;28;20535;-59
2021/11/25 00:32:21;;;;;;;24.23;14.70;;;5.50;99.90;;;;;;4976830;28;20217;-59
2021/11/25 00:34:47;;;;;;;23.27;14.67;;;5.70;99.90;;;;;;4980296;28;20277;-56
2021/11/25 00:37:12;;;;;;;26.80;15.00;;;5.80;99.90;;;;;;4977032;28;20197;-60
2021/11/25 00:39:38;;;;;;;23.10;14.70;;;5.80;99.90;;;;;;4973962;28;20320;-59
2021/11/25 00:42:04;;;;;;;23.73;16.13;;;5.80;99.90;;;;;;4979178;28;20189;-59
2021/11/25 00:44:30;;;;;;;22.93;14.70;;;5.80;99.90;;;;;;4977099;28;20191;-59
2021/11/25 00:46:56;;;;;;;27.87;15.20;;;5.60;99.90;;;;;;4977677;28;20812;-58
2021/11/25 00:49:22;;;;;;;24.30;15.50;;;5.70;99.90;;;;;;4976578;28;20211;-57
2021/11/25 00:51:48;;;;;;;22.30;14.10;;;5.70;99.90;;;;;;4973871;28;20437;-59
2021/11/25 00:54:13;;;;;;;21.70;14.10;;;5.70;99.90;;;;;;4975312;28;20537;-57
2021/11/25 00:56:39;;;;;;;24.30;15.60;;;5.60;99.90;;;;;;4976799;28;20202;-60
2021/11/25 00:59:05;;;;;;;24.23;14.73;;;5.60;99.90;;;;;;4977822;28;20263;-59
2021/11/25 01:01:31;;;;;;;25.20;15.27;;;5.80;99.90;;;;;;4979873;28;20190;-57
2021/11/25 01:03:56;;;;;;;26.00;15.97;;;5.90;99.90;;;;;;4977465;28;20187;-59
2021/11/25 01:06:22;;;;;;;25.67;15.50;;;5.90;99.90;;;;;;4976804;28;20459;-60
2021/11/25 01:08:48;;;;;;;23.00;16.57;;;5.90;99.90;;;;;;4978720;28;20205;-58
2021/11/25 01:11:13;;;;;;;27.40;15.37;;;5.80;99.90;;;;;;4979355;28;20244;-58
2021/11/25 01:13:41;;;;;;;24.63;15.10;;;5.90;99.90;;;;;;4961973;28;20194;-59
2021/11/25 01:16:07;;;;;;;27.33;14.70;;;6.00;99.90;;;;;;4977100;28;20216;-59
2021/11/25 01:18:32;;;;;;;23.77;14.33;;;6.10;99.90;;;;;;4981564;28;20484;-57
2021/11/25 01:20:58;;;;;;;21.60;14.40;;;5.90;99.90;;;;;;4962478;28;20469;-58
2021/11/25 01:23:28;;;;;;;22.77;13.83;;;5.50;99.90;;;;;;4976151;28;20190;-58
2021/11/25 01:25:55;;;;;;;25.57;16.03;;;5.50;99.90;;;;;;4979388;28;20456;-58
2021/11/25 01:28:23;;;;;;;24.53;15.43;;;5.00;99.90;;;;;;4974910;28;21056;-59
2021/11/25 01:30:52;;;;;;;23.60;15.87;;;4.70;99.90;;;;;;4973488;28;20444;-59
2021/11/25 01:33:18;;;;;;;25.73;15.83;;;4.60;99.90;;;;;;4976590;28;20452;-59
2021/11/25 01:35:45;;;;;;;23.87;14.73;;;4.50;99.90;;;;;;4974707;28;20437;-58
2021/11/25 01:38:11;;;;;;;22.80;14.23;;;4.70;99.90;;;;;;4979145;28;20993;-58
2021/11/25 01:40:39;;;;;;;22.97;14.53;;;4.80;99.90;;;;;;4975318;28;20472;-59
2021/11/25 01:43:06;;;;;;;22.70;14.60;;;4.90;99.90;;;;;;4973637;28;20568;-56
2021/11/25 01:45:32;;;;;;;29.27;16.10;;;5.10;99.90;;;;;;4978381;28;20433;-60
2021/11/25 01:47:59;;;;;;;25.63;15.23;;;5.10;99.90;;;;;;4974860;28;20458;-59
2021/11/25 01:50:27;;;;;;;26.23;15.13;;;5.30;99.90;;;;;;4975577;28;20441;-59
2021/11/25 01:52:53;;;;;;;25.67;15.97;;;5.40;99.90;;;;;;4978447;28;20951;-59
2021/11/25 01:55:21;;;;;;;24.93;16.43;;;5.50;99.90;;;;;;4975071;28;20802;-59
2021/11/25 01:57:49;;;;;;;27.50;15.90;;;5.70;99.90;;;;;;4977348;28;20924;-59
2021/11/25 02:00:30;;;;;;;24.00;15.20;;;5.70;99.90;;;;;;4959482;28;20839;-59
2021/11/25 02:02:57;;;;;;;24.30;15.47;;;5.80;99.90;;;;;;4974872;28;21055;-58
2021/11/25 02:05:22;;;;;;;22.37;14.90;;;5.70;99.90;;;;;;4977711;28;20868;-58
2021/11/25 02:07:48;;;;;;;23.97;15.23;;;5.60;99.90;;;;;;4978105;28;20433;-56
2021/11/25 02:10:14;;;;;;;26.10;14.20;;;5.60;99.90;;;;;;4973566;28;20487;-57
2021/11/25 02:12:41;;;;;;;31.33;16.30;;;5.70;99.90;;;;;;4977968;28;20289;-58
2021/11/25 02:15:08;;;;;;;30.07;15.60;;;5.70;99.90;;;;;;4975742;28;20432;-59
2021/11/25 02:17:35;;;;;;;23.87;15.30;;;5.70;99.90;;;;;;4978844;28;20549;-59
2021/11/25 02:20:02;;;;;;;23.47;14.60;;;5.50;99.90;;;;;;4974061;28;20485;-58
2021/11/25 02:22:28;;;;;;;23.90;14.80;;;5.60;99.90;;;;;;4959180;28;20440;-59
2021/11/25 02:24:53;;;;;;;24.30;14.37;;;5.50;99.90;;;;;;4979021;28;20623;-58
2021/11/25 02:27:20;;;;;;;23.17;14.87;;;5.50;99.90;;;;;;4974743;28;20673;-60
2021/11/25 02:29:46;;;;;;;25.57;13.40;;;5.50;99.90;;;;;;4975976;28;20214;-59
2021/11/25 02:32:12;;;;;;;19.90;13.30;;;5.50;99.90;;;;;;4977268;28;20454;-59
2021/11/25 02:34:37;;;;;;;27.47;14.80;;;5.40;99.90;;;;;;4976040;28;21089;-58
2021/11/25 02:37:03;;;;;;;25.33;14.33;;;5.30;99.90;;;;;;4974435;28;20228;-58
2021/11/25 02:39:29;;;;;;;22.27;14.10;;;5.40;99.90;;;;;;4976390;28;20220;-58
2021/11/25 02:41:54;;;;;;;21.90;13.57;;;5.50;99.90;;;;;;4976887;28;20196;-58
2021/11/25 02:44:20;;;;;;;20.10;14.00;;;5.30;99.90;;;;;;4978896;28;20197;-58
2021/11/25 02:46:52;;;;;;;25.30;13.83;;;5.40;99.90;;;;;;4974962;28;20193;-59
2021/11/25 02:49:17;;;;;;;26.70;14.03;;;5.40;99.90;;;;;;4977593;28;20217;-59
2021/11/25 02:51:43;;;;;;;25.93;14.47;;;5.30;99.90;;;;;;4975257;28;20453;-58
2021/11/25 02:54:09;;;;;;;23.90;13.40;;;5.40;99.90;;;;;;4973581;28;20198;-58
2021/11/25 02:56:34;;;;;;;24.33;13.20;;;5.50;99.90;;;;;;4977406;28;20555;-57
2021/11/25 02:59:00;;;;;;;23.60;14.17;;;5.50;99.90;;;;;;4974858;28;20309;-59
2021/11/25 03:01:37;;;;;;;23.03;15.13;;;5.40;99.90;;;;;;4974399;28;20595;-59
2021/11/25 03:04:05;;;;;;;23.60;13.23;;;5.50;99.90;;;;;;4974909;28;20504;-60
2021/11/25 03:06:31;;;;;;;22.77;14.20;;;5.50;99.90;;;;;;4976882;28;20452;-59
2021/11/25 03:08:57;;;;;;;20.43;12.63;;;5.30;99.90;;;;;;4974610;28;20488;-59
2021/11/25 03:11:25;;;;;;;22.73;13.90;;;5.50;99.90;;;;;;4977144;28;20444;-60
2021/11/25 03:13:54;;;;;;;22.17;15.50;;;5.70;99.90;;;;;;4974882;28;20468;-59
2021/11/25 03:16:21;;;;;;;24.13;13.70;;;5.60;99.90;;;;;;4975698;28;20449;-59
2021/11/25 03:18:47;;;;;;;19.83;13.77;;;5.60;99.90;;;;;;4975829;28;20466;-58
2021/11/25 03:21:15;;;;;;;21.47;12.83;;;5.60;99.90;;;;;;4977185;28;20445;-60
2021/11/25 03:23:42;;;;;;;20.37;13.80;;;5.60;99.90;;;;;;4977037;28;20453;-57
2021/11/25 03:26:09;;;;;;;26.50;15.80;;;5.60;99.90;;;;;;4977632;28;20437;-56
2021/11/25 03:28:40;;;;;;;22.40;13.40;;;5.60;99.90;;;;;;4972806;28;20520;-60
2021/11/25 03:31:07;;;;;;;21.53;13.87;;;5.60;99.90;;;;;;4977721;28;20814;-59
2021/11/25 03:33:33;;;;;;;22.10;14.60;;;5.60;99.90;;;;;;4973776;28;20470;-58
2021/11/25 03:36:02;;;;;;;20.27;13.40;;;5.50;99.90;;;;;;4974588;28;21118;-59
2021/11/25 03:38:29;;;;;;;19.73;13.70;;;5.60;99.90;;;;;;4978101;28;20478;-58
2021/11/25 03:40:55;;;;;;;20.83;14.73;;;5.70;99.90;;;;;;4973339;28;20548;-58
2021/11/25 03:43:22;;;;;;;20.47;14.13;;;5.70;99.90;;;;;;4974304;28;20453;-59
2021/11/25 03:45:47;;;;;;;22.20;14.20;;;5.70;99.90;;;;;;4977051;28;20493;-60
2021/11/25 03:48:14;;;;;;;19.37;13.27;;;5.70;99.90;;;;;;4973191;28;20585;-59
2021/11/25 03:50:39;;;;;;;22.63;13.43;;;5.70;99.90;;;;;;4973156;28;20190;-59
2021/11/25 03:53:06;;;;;;;20.07;14.43;;;5.60;99.90;;;;;;4977154;28;20806;-60
2021/11/25 03:55:32;;;;;;;21.20;13.97;;;5.40;99.90;;;;;;4975240;28;20199;-59
2021/11/25 03:57:58;;;;;;;20.87;12.80;;;5.60;99.90;;;;;;4977643;28;20449;-59
2021/11/25 04:00:24;;;;;;;17.30;12.93;;;5.60;99.90;;;;;;4976152;28;20697;-59
2021/11/25 04:02:51;;;;;;;22.23;13.20;;;5.50;99.90;;;;;;4978655;28;20197;-60
2021/11/25 04:05:17;;;;;;;21.17;13.10;;;5.60;99.90;;;;;;4973330;28;20440;-60
2021/11/25 04:07:43;;;;;;;19.63;13.17;;;5.50;99.90;;;;;;4973756;28;20476;-59
2021/11/25 04:10:11;;;;;;;23.27;13.37;;;5.70;99.90;;;;;;4974206;28;20456;-59
2021/11/25 04:12:36;;;;;;;21.40;13.27;;;5.70;99.90;;;;;;4973653;28;20449;-56
2021/11/25 04:15:04;;;;;;;22.07;14.23;;;5.70;99.90;;;;;;4971878;28;20568;-59
2021/11/25 04:17:30;;;;;;;19.77;12.33;;;5.60;99.90;;;;;;4976019;28;20659;-57
2021/11/25 04:19:56;;;;;;;21.17;12.37;;;5.50;99.90;;;;;;4957498;28;20523;-60
2021/11/25 04:22:22;;;;;;;20.40;13.17;;;5.60;99.90;;;;;;4978454;28;20518;-58
2021/11/25 04:24:49;;;;;;;21.67;14.00;;;5.70;99.90;;;;;;4980377;28;20433;-58
2021/11/25 04:27:16;;;;;;;24.97;14.53;;;5.50;99.90;;;;;;4980587;28;20472;-60
2021/11/25 04:29:45;;;;;;;20.60;12.90;;;5.40;99.90;;;;;;4978115;28;20460;-59
2021/11/25 04:37:41;;;;;;;21.17;12.37;;;5.40;99.90;;;;;;4976360;28;20484;-59
2021/11/25 04:40:08;;;;;;;22.37;13.10;;;5.50;99.90;;;;;;4961300;28;21552;-59
2021/11/25 04:42:34;;;;;;;24.30;12.90;;;5.50;99.90;;;;;;4976744;28;20828;-59
2021/11/25 04:44:59;;;;;;;24.93;13.10;;;5.50;99.90;;;;;;4979167;28;20433;-59
2021/11/25 04:47:25;;;;;;;24.53;13.40;;;5.40;99.90;;;;;;4978632;28;20214;-59
2021/11/25 04:49:50;;;;;;;21.60;13.17;;;5.50;99.90;;;;;;4978853;28;20240;-59
2021/11/25 04:52:16;;;;;;;23.03;14.03;;;5.40;99.90;;;;;;4978389;28;20269;-59
2021/11/25 04:54:41;;;;;;;21.77;13.00;;;5.30;99.90;;;;;;4978023;28;20190;-59
2021/11/25 04:57:07;;;;;;;17.07;11.33;;;5.30;99.90;;;;;;4978188;28;20194;-58
2021/11/25 04:59:33;;;;;;;21.47;13.57;;;5.40;99.90;;;;;;4976317;28;20296;-57
2021/11/25 05:01:58;;;;;;;24.37;14.07;;;5.40;99.90;;;;;;4980387;28;20178;-57
2021/11/25 05:04:24;;;;;;;24.03;15.27;;;5.30;99.90;;;;;;4978712;28;20189;-59
2021/11/25 05:06:49;;;;;;;22.50;12.53;;;5.10;99.90;;;;;;4976583;28;20212;-57
2021/11/25 05:09:16;;;;;;;26.47;13.73;;;5.30;99.90;;;;;;4980205;28;20202;-57
2021/11/25 05:11:42;;;;;;;22.67;13.30;;;5.40;99.90;;;;;;4975973;28;20493;-57
2021/11/25 05:14:07;;;;;;;22.33;13.67;;;5.40;99.90;;;;;;4975746;28;20456;-58
2021/11/25 05:16:33;;;;;;;24.07;14.00;;;5.20;99.90;;;;;;4978309;28;20249;-58
2021/11/25 05:18:59;;;;;;;27.27;13.90;;;5.20;99.90;;;;;;4977843;28;20908;-58
2021/11/25 05:21:25;;;;;;;24.67;14.30;;;5.20;99.90;;;;;;4976012;28;20495;-59
2021/11/25 05:23:50;;;;;;;22.10;12.60;;;5.30;99.90;;;;;;4979054;28;20268;-59
2021/11/25 05:26:16;;;;;;;25.50;14.97;;;5.10;99.90;;;;;;4975247;28;20581;-59
2021/11/25 05:28:42;;;;;;;24.93;14.30;;;4.80;99.90;;;;;;4976997;28;20387;-60
2021/11/25 05:31:08;;;;;;;23.23;13.20;;;5.00;99.90;;;;;;4978766;28;20261;-59
2021/11/25 05:33:34;;;;;;;17.13;11.80;;;5.10;99.90;;;;;;4959014;28;20445;-59
2021/11/25 05:35:59;;;;;;;23.20;13.00;;;5.20;99.90;;;;;;4975392;28;20648;-59
2021/11/25 05:38:25;;;;;;;29.67;14.10;;;5.30;99.90;;;;;;4976456;28;20285;-58
2021/11/25 05:40:50;;;;;;;25.83;15.57;;;5.20;99.90;;;;;;4975495;28;20760;-59
2021/11/25 05:43:16;;;;;;;24.97;16.57;;;5.10;99.90;;;;;;4977613;28;20790;-59
2021/11/25 05:45:42;;;;;;;25.63;14.07;;;5.30;99.90;;;;;;4977199;28;20216;-59
2021/11/25 05:48:08;;;;;;;24.10;14.10;;;5.30;99.90;;;;;;4977940;28;20189;-60
2021/11/25 05:50:33;;;;;;;23.07;14.67;;;5.40;99.90;;;;;;4976867;28;20820;-59
2021/11/25 05:52:59;;;;;;;26.67;15.13;;;5.30;99.90;;;;;;4976379;28;20725;-60
2021/11/25 05:55:27;;;;;;;24.23;13.70;;;5.30;99.90;;;;;;4978469;28;20190;-60
2021/11/25 05:57:54;;;;;;;26.53;14.67;;;5.20;99.90;;;;;;4979056;28;20440;-59
2021/11/25 06:00:20;;;;;;;19.20;12.50;;;5.20;99.90;;;;;;4974607;28;21033;-57
2021/11/25 06:02:48;;;;;;;22.93;13.57;;;5.20;99.90;;;;;;4977217;28;20535;-58
2021/11/25 06:05:15;;;;;;;28.07;14.80;;;5.20;99.90;;;;;;4977929;28;20973;-58
2021/11/25 06:07:45;;;;;;;25.00;13.60;;;5.20;99.90;;;;;;4973475;28;20446;-58
2021/11/25 06:10:12;;;;;;;27.60;13.10;;;5.10;99.90;;;;;;4978512;28;20909;-59
2021/11/25 06:12:38;;;;;;;24.63;14.63;;;5.20;99.90;;;;;;4976218;28;20961;-58
2021/11/25 06:15:05;;;;;;;26.27;14.60;;;5.20;99.90;;;;;;4976469;28;20438;-59
2021/11/25 06:17:31;;;;;;;21.83;13.93;;;5.10;99.90;;;;;;4977111;28;20461;-59
2021/11/25 06:19:57;;;;;;;23.53;13.40;;;5.00;99.90;;;;;;4972152;28;20482;-58
2021/11/25 06:22:24;;;;;;;27.20;15.10;;;4.90;99.90;;;;;;4976347;28;20615;-59
2021/11/25 06:24:49;;;;;;;30.57;16.20;;;5.10;99.90;;;;;;4976872;28;20505;-59
2021/11/25 06:27:15;;;;;;;22.17;13.77;;;5.10;99.90;;;;;;4977194;28;20971;-59
2021/11/25 06:29:41;;;;;;;27.17;15.27;;;5.10;99.90;;;;;;4976401;28;20209;-59
2021/11/25 06:32:07;;;;;;;25.20;15.00;;;5.10;99.90;;;;;;4975974;28;20182;-60
2021/11/25 06:34:33;;;;;;;21.57;14.50;;;5.20;99.90;;;;;;4974078;28;20201;-59
2021/11/25 06:36:58;;;;;;;28.20;14.17;;;4.90;99.90;;;;;;4974823;28;20457;-59
2021/11/25 06:39:24;;;;;;;32.07;15.10;;;5.00;99.90;;;;;;4973189;28;20232;-59
2021/11/25 06:41:50;;;;;;;24.57;15.37;;;4.90;99.90;;;;;;4975210;28;20182;-60
2021/11/25 06:44:15;;;;;;;24.97;14.70;;;5.10;99.90;;;;;;4969940;28;20201;-60
2021/11/25 06:46:41;;;;;;;26.83;16.20;;;5.10;99.90;;;;;;4974070;28;20187;-60
2021/11/25 06:49:07;;;;;;;29.53;14.80;;;5.10;99.90;;;;;;4971152;28;20468;-59
2021/11/25 06:51:33;;;;;;;28.53;15.53;;;5.00;99.90;;;;;;4971684;28;20468;-60
2021/11/25 06:53:59;;;;;;;26.97;15.40;;;5.10;99.90;;;;;;4972008;28;20198;-59
2021/11/25 06:56:24;;;;;;;24.60;14.90;;;5.20;99.90;;;;;;4974033;28;20192;-59
2021/11/25 06:58:51;;;;;;;25.87;14.43;;;5.20;99.90;;;;;;4973326;28;20903;-59
2021/11/25 07:01:17;;;;;;;25.63;15.00;;;5.20;99.90;;;;;;4972967;28;20216;-56
2021/11/25 07:03:42;;;;;;;28.43;16.10;;;5.10;99.90;;;;;;4973840;28;20434;-60
2021/11/25 07:06:08;;;;;;;24.73;13.50;;;5.30;99.90;;;;;;4976728;28;20655;-59
2021/11/25 07:08:34;;;;;;;23.83;14.50;;;5.30;99.90;;;;;;4974579;28;20206;-58
2021/11/25 07:10:59;;;;;;;23.40;13.73;;;5.40;99.90;;;;;;4974319;28;20356;-58
2021/11/25 07:13:28;;;;;;;26.30;14.60;;;5.30;99.90;;;;;;4975568;28;20241;-59
2021/11/25 07:15:55;;;;;;;27.70;15.07;;;5.40;99.90;;;;;;4973779;28;20624;-60
2021/11/25 07:18:21;;;;;;;26.33;15.00;;;5.40;99.90;;;;;;4978388;28;20464;-59
2021/11/25 07:20:47;;;;;;;30.53;14.20;;;5.30;99.90;;;;;;4976735;28;20469;-57
2021/11/25 07:23:13;;;;;;;30.70;14.47;;;5.10;99.90;;;;;;4976007;28;20455;-59
2021/11/25 07:25:39;;;;;;;22.27;13.67;;;5.10;99.90;;;;;;4975241;28;21024;-58
2021/11/25 07:28:04;;;;;;;22.63;14.83;;;5.20;99.90;;;;;;4972214;28;20277;-58
2021/11/25 07:30:30;;;;;;;23.10;13.70;;;5.40;99.90;;;;;;4973903;28;20440;-59
2021/11/25 07:32:56;;;;;;;26.93;14.80;;;5.30;99.90;;;;;;4974714;28;20260;-58
2021/11/25 07:35:23;;;;;;;30.37;14.97;;;5.40;99.90;;;;;;4976091;28;20293;-56
2021/11/25 07:37:52;;;;;;;24.57;14.67;;;5.40;99.90;;;;;;4975581;28;20190;-57
2021/11/25 07:40:20;;;;;;;21.13;14.07;;;5.40;99.90;;;;;;4973681;28;20713;-59
2021/11/25 07:42:47;;;;;;;28.30;14.60;;;5.50;99.90;;;;;;4978142;28;20446;-58
2021/11/25 07:45:13;;;;;;;28.40;14.90;;;5.60;99.90;;;;;;4972838;28;20445;-59
2021/11/25 07:47:39;;;;;;;24.93;14.90;;;5.50;99.90;;;;;;4976195;28;20777;-59
2021/11/25 07:50:08;;;;;;;25.40;13.13;;;5.60;99.90;;;;;;4974920;28;20516;-59
2021/11/25 07:52:34;;;;;;;25.20;13.13;;;5.60;99.90;;;;;;4972630;28;20687;-59
2021/11/25 07:55:00;;;;;;;27.37;15.23;;;5.60;99.90;;;;;;4977752;28;20459;-58
2021/11/25 07:57:26;;;;;;;26.03;14.87;;;5.70;99.90;;;;;;4977142;28;20209;-56
2021/11/25 07:59:52;;;;;;;27.03;14.13;;;5.80;99.90;;;;;;4971356;28;20219;-57
2021/11/25 08:02:19;;;;;;;23.47;13.53;;;5.80;99.90;;;;;;4978889;28;20448;-56
2021/11/25 08:04:49;;;;;;;21.33;14.00;;;5.80;99.90;;;;;;4977025;28;20874;-57
2021/11/25 08:07:15;;;;;;;26.20;14.27;;;5.70;99.90;;;;;;4962262;28;20788;-55
2021/11/25 08:09:41;;;;;;;27.83;13.93;;;5.80;99.90;;;;;;4980977;28;20657;-57
2021/11/25 08:12:07;;;;;;;27.97;15.90;;;5.90;99.90;;;;;;4979628;28;20443;-59
2021/11/25 08:14:33;;;;;;;24.37;14.30;;;5.90;99.90;;;;;;4978755;28;20436;-58
2021/11/25 08:16:59;;;;;;;27.47;15.77;;;6.00;99.90;;;;;;4977013;28;20448;-59
2021/11/25 08:19:28;;;;;;;23.23;14.10;;;6.00;99.90;;;;;;4976703;28;20974;-59
2021/11/25 08:21:55;;;;;;;23.03;14.23;;;6.00;99.90;;;;;;4976745;28;20444;-60
2021/11/25 08:24:21;;;;;;;26.27;15.37;;;5.90;99.90;;;;;;4976230;28;20437;-57
2021/11/25 08:26:47;;;;;;;22.30;13.37;;;5.90;99.90;;;;;;4978571;28;20950;-60
2021/11/25 08:29:12;;;;;;;29.13;14.33;;;5.90;99.90;;;;;;4980923;28;20548;-59
2021/11/25 08:31:38;;;;;;;24.03;14.37;;;6.00;99.90;;;;;;4976150;28;20186;-60
2021/11/25 08:34:04;;;;;;;26.43;14.47;;;6.00;99.90;;;;;;4963281;28;20281;-60
2021/11/25 08:36:30;;;;;;;27.23;14.60;;;5.90;99.90;;;;;;4976919;28;20528;-60
2021/11/25 08:38:56;;;;;;;32.50;14.90;;;5.50;99.90;;;;;;4977164;28;20975;-60
2021/11/25 08:41:25;;;;;;;28.60;16.13;;;5.50;99.90;;;;;;4975594;28;20476;-59
2021/11/25 08:43:51;;;;;;;25.87;14.77;;;5.50;99.90;;;;;;4960947;28;20314;-59
2021/11/25 08:46:16;;;;;;;29.80;15.10;;;5.50;99.90;;;;;;4976841;28;20539;-59
2021/11/25 08:48:42;;;;;;;23.80;14.60;;;5.60;99.90;;;;;;4978075;28;21014;-58
2021/11/25 08:51:09;;;;;;;27.47;16.23;;;5.50;99.90;;;;;;4977396;28;20197;-57
2021/11/25 08:53:35;;;;;;;27.90;14.43;;;5.60;99.90;;;;;;4981745;28;20201;-58
2021/11/25 08:56:01;;;;;;;29.23;16.20;;;5.50;99.90;;;;;;4971385;28;20446;-59
2021/11/25 08:58:27;;;;;;;26.23;16.37;;;5.40;99.90;;;;;;4976894;28;20460;-59
2021/11/25 09:00:53;;;;;;;30.60;15.00;;;5.50;99.90;;;;;;4977024;28;20466;-57
2021/11/25 09:03:19;;;;;;;30.33;16.17;;;5.50;99.90;;;;;;4978493;28;20437;-57
2021/11/25 09:05:45;;;;;;;26.47;14.60;;;5.60;99.90;;;;;;4982242;28;20201;-57
2021/11/25 09:08:10;;;;;;;25.30;14.70;;;5.50;99.90;;;;;;4974541;28;20202;-59
2021/11/25 09:10:36;;;;;;;26.87;15.93;;;5.30;99.90;;;;;;4977287;28;20453;-56
2021/11/25 09:13:04;;;;;;;29.80;17.50;;;5.50;99.90;;;;;;4980123;28;20201;-59
2021/11/25 09:15:32;;;;;;;32.33;15.90;;;5.50;99.90;;;;;;4978265;28;20270;-60
2021/11/25 09:18:00;;;;;;;26.90;14.93;;;5.60;99.90;;;;;;4976988;28;20453;-60
2021/11/25 09:20:34;;;;;;;29.33;15.43;;;5.50;99.90;;;;;;4978216;28;21106;-60
2021/11/25 09:23:05;;;;;;;27.60;16.27;;;5.60;99.90;;;;;;4974981;28;20448;-60
2021/11/25 09:25:31;;;;;;;27.30;17.00;;;5.60;99.90;;;;;;4977833;28;20550;-58
2021/11/25 09:27:59;;;;;;;29.53;17.90;;;5.60;99.90;;;;;;4973640;28;20449;-60
2021/11/25 09:30:25;;;;;;;25.23;16.00;;;5.80;99.90;;;;;;4974209;28;20496;-58
2021/11/25 09:32:50;;;;;;;29.03;17.83;;;5.60;99.90;;;;;;4972326;28;20450;-59
2021/11/25 09:35:18;;;;;;;34.23;18.47;;;5.50;99.90;;;;;;4968862;28;20476;-59
2021/11/25 09:37:43;;;;;;;36.00;17.80;;;5.60;99.90;;;;;;4969977;28;20200;-55
2021/11/25 09:40:20;;;;;;;32.40;19.50;;;5.80;99.90;;;;;;4973020;28;21298;-59
2021/11/25 09:42:46;;;;;;;33.30;18.20;;;5.70;99.90;;;;;;4971642;28;20272;-59
2021/11/25 09:45:14;;;;;;;38.40;20.97;;;5.70;99.90;;;;;;4974542;28;20840;-55
2021/11/25 09:47:40;;;;;;;31.47;18.90;;;5.70;99.90;;;;;;4973420;28;20469;-59
2021/11/25 09:50:06;;;;;;;30.83;18.03;;;5.80;99.90;;;;;;4956441;28;21062;-59
2021/11/25 09:52:32;;;;;;;29.83;16.93;;;5.90;99.90;;;;;;4974535;28;20962;-57
2021/11/25 09:54:57;;;;;;;26.80;16.93;;;5.90;99.90;;;;;;4972705;28;20441;-58
2021/11/25 09:57:23;;;;;;;26.07;15.63;;;6.20;99.90;;;;;;4973558;28;20276;-59
2021/11/25 09:59:49;;;;;;;32.40;17.90;;;6.20;99.90;;;;;;4970544;28;20220;-56
2021/11/25 10:02:14;;;;;;;33.67;18.87;;;6.30;99.90;;;;;;4974285;28;20195;-59
2021/11/25 10:04:40;;;;;;;32.30;18.70;;;6.40;99.90;;;;;;4974003;28;20190;-60
2021/11/25 10:07:05;;;;;;;35.30;19.70;;;6.40;99.90;;;;;;4974715;28;20268;-60
2021/11/25 10:09:40;;;;;;;31.67;18.23;;;6.40;99.90;;;;;;4973758;28;20632;-59
2021/11/25 10:12:38;;;;;;;32.60;19.03;;;6.20;99.90;;;;;;4955312;28;20189;-59
2021/11/25 10:15:28;;;;;;;28.30;17.23;;;6.30;99.90;;;;;;4975042;28;20433;-59
2021/11/25 10:17:58;;;;;;;31.03;18.37;;;6.30;99.90;;;;;;4975134;28;20536;-58
2021/11/25 10:20:28;;;;;;;35.57;19.23;;;6.40;99.90;;;;;;4972968;28;20483;-58
2021/11/25 10:23:15;;;;;;;28.03;16.80;;;6.60;99.90;;;;;;4974622;28;20447;-59
2021/11/25 10:26:00;;;;;;;26.00;16.27;;;6.50;99.90;;;;;;4972364;28;20901;-59
2021/11/25 10:28:42;;;;;;;30.40;18.80;;;6.50;99.90;;;;;;4973639;28;20456;-57
2021/11/25 10:31:11;;;;;;;29.37;16.73;;;6.60;99.90;;;;;;4969420;28;21003;-59
2021/11/25 10:34:03;;;;;;;35.03;18.90;;;6.40;99.90;;;;;;4971900;28;20533;-59
2021/11/25 10:41:50;;;;;;;30.00;18.57;;;6.50;99.90;;;;;;4973679;28;21030;-58
2021/11/25 10:44:37;;;;;;;32.83;19.17;;;6.30;99.90;;;;;;4973571;28;20464;-58
2021/11/25 10:47:18;;;;;;;28.30;16.27;;;6.20;99.90;;;;;;4973107;28;20627;-57
2021/11/25 10:49:51;;;;;;;25.67;16.40;;;6.20;99.90;;;;;;4972264;28;20630;-62
2021/11/25 10:52:31;;;;;;;31.50;17.90;;;6.10;99.90;;;;;;4969177;28;20520;-59
2021/11/25 10:55:06;;;;;;;30.10;18.27;;;6.10;99.90;;;;;;4974803;28;20436;-58
2021/11/25 10:57:41;;;;;;;32.70;18.70;;;6.20;99.90;;;;;;4971834;28;20445;-57
2021/11/25 11:00:11;;;;;;;31.97;18.67;;;6.30;99.90;;;;;;4968931;28;20480;-56
2021/11/25 11:02:37;;;;;;;28.60;16.43;;;6.40;99.90;;;;;;4974888;28;20434;-55
2021/11/25 11:05:11;;;;;;;34.57;18.03;;;6.40;99.90;;;;;;4972324;28;20801;-55
2021/11/25 11:07:44;;;;;;;28.97;17.30;;;6.40;99.90;;;;;;4972235;28;20246;-55
2021/11/25 11:10:20;;;;;;;29.87;18.23;;;6.40;99.90;;;;;;4969404;28;20464;-58
2021/11/25 11:15:52;;;;;;;23.67;16.67;;;6.50;99.90;;;;;;4952202;28;20924;-56
2021/11/25 11:20:50;;;;;;;23.97;16.73;;;6.40;99.90;;;;;;4970599;28;20469;-58
2021/11/25 11:23:18;;;;;;;29.53;16.97;;;6.30;99.90;;;;;;4956779;28;20177;-57
2021/11/25 11:25:44;;;;;;;28.17;15.90;;;6.30;99.90;;;;;;4970381;28;20481;-57
2021/11/25 11:28:10;;;;;;;27.20;17.70;;;6.40;99.90;;;;;;4968225;28;20560;-57
2021/11/25 11:30:36;;;;;;;36.03;21.90;;;6.40;99.90;;;;;;4972754;28;20198;-57
2021/11/25 11:33:08;;;;;;;34.70;23.37;;;6.30;99.90;;;;;;4970531;28;21301;-56
2021/11/25 11:35:35;;;;;;;37.17;21.10;;;6.30;99.90;;;;;;4974116;28;20826;-57
2021/11/25 11:38:02;;;;;;;36.37;18.87;;;6.20;99.90;;;;;;4974294;28;20522;-59
2021/11/25 11:40:32;;;;;;;30.70;19.40;;;5.90;99.90;;;;;;4975076;28;20580;-58
2021/11/25 11:42:59;;;;;;;29.77;18.67;;;6.00;99.90;;;;;;4978422;28;20649;-58
2021/11/25 11:45:28;;;;;;;33.80;20.97;;;6.10;99.90;;;;;;4973305;28;20440;-59
2021/11/25 11:47:57;;;;;;;33.10;20.40;;;6.10;99.90;;;;;;4974820;28;20440;-57
2021/11/25 11:50:37;;;;;;;30.27;19.47;;;6.20;99.90;;;;;;4973650;28;20440;-58
2021/11/25 11:53:10;;;;;;;30.40;19.17;;;6.20;99.90;;;;;;4976736;28;20491;-57
2021/11/25 11:55:37;;;;;;;30.43;18.00;;;6.30;99.90;;;;;;4976312;28;20437;-59
2021/11/25 11:58:28;;;;;;;25.50;17.27;;;6.40;99.90;;;;;;4970628;28;20465;-59
2021/11/25 12:01:06;;;;;;;28.40;18.10;;;6.50;99.90;;;;;;4973365;28;20474;-59
2021/11/25 12:03:33;;;;;;;31.33;19.57;;;6.30;99.90;;;;;;4975955;28;20445;-59
2021/11/25 12:05:59;;;;;;;33.70;20.50;;;6.20;99.90;;;;;;4973630;28;20744;-59
2021/11/25 12:08:33;;;;;;;31.67;20.77;;;6.10;99.90;;;;;;4975644;28;20452;-58
2021/11/25 12:10:59;;;;;;;36.20;21.37;;;6.00;99.90;;;;;;4976501;28;20576;-52
2021/11/25 12:13:38;;;;;;;40.53;22.80;;;6.00;99.90;;;;;;4974817;28;20440;-57
2021/11/25 12:16:16;;;;;;;41.80;20.43;;;6.00;99.90;;;;;;4975791;28;20208;-59
2021/11/25 12:18:43;;;;;;;34.57;20.90;;;6.00;99.90;;;;;;4976383;28;20887;-59
2021/11/25 12:21:08;;;;;;;36.47;21.13;;;6.00;99.90;;;;;;4977480;28;20473;-60
2021/11/25 12:23:40;;;;;;;35.43;21.73;;;5.90;99.90;;;;;;4978909;28;20892;-59
2021/11/25 12:26:07;;;;;;;40.70;21.57;;;5.90;99.90;;;;;;4973846;28;20197;-59
2021/11/25 12:28:40;;;;;;;39.37;20.57;;;5.80;99.90;;;;;;4977179;28;20543;-59
2021/11/25 12:33:43;;;;;;;39.67;21.40;;;5.80;99.90;;;;;;4972345;28;20437;-60
2021/11/25 12:36:29;;;;;;;36.50;21.07;;;5.70;99.90;;;;;;4977727;28;20448;-58
2021/11/25 12:38:55;;;;;;;38.63;23.30;;;5.70;99.90;;;;;;4972971;28;20482;-59
2021/11/25 12:41:20;;;;;;;45.03;21.77;;;5.70;99.90;;;;;;4976466;28;20472;-58
2021/11/25 12:43:46;;;;;;;42.37;22.00;;;5.70;99.90;;;;;;4976174;28;20556;-55
2021/11/25 12:46:17;;;;;;;40.37;22.60;;;5.80;99.90;;;;;;4974372;28;20818;-58
2021/11/25 12:48:50;;;;;;;40.67;22.40;;;5.70;99.90;;;;;;4974145;28;20296;-56
2021/11/25 12:51:20;;;;;;;41.97;23.30;;;5.50;99.90;;;;;;4973914;28;20438;-57
2021/11/25 12:53:54;;;;;;;41.43;23.93;;;5.40;99.90;;;;;;4974989;28;20438;-58
2021/11/25 12:56:34;;;;;;;41.87;21.63;;;5.30;99.90;;;;;;4975368;28;20510;-56